Time;durP1;ratioP1;P1;durP2;ratioP2;P2;SDS_P1;SDS_P2;PMS_P1;PMS_P2;Temp;Humidity;BMP_temperature;BMP_pressure;BME280_temperature;BME280_humidity;BME280_pressure;Samples;Min_cycle;Max_cycle;Signal;HPM_P1;HPM_P2
2023/10/18 00:01:45;;;;;;;5.82;3.45;;;5.50;99.90;;;;;;493069;241;27333;-70
2023/10/18 00:03:46;;;;;;;7.70;4.72;;;5.60;99.90;;;;;;493137;241;27357;-70
2023/10/18 00:05:47;;;;;;;7.28;4.90;;;5.70;99.90;;;;;;493136;241;27864;-70
2023/10/18 00:07:49;;;;;;;8.82;6.03;;;5.70;99.90;;;;;;482314;245;27551;-70
2023/10/18 00:09:50;;;;;;;5.78;4.68;;;5.70;99.90;;;;;;475453;250;27521;-70
2023/10/18 00:11:51;;;;;;;6.12;4.65;;;5.80;99.90;;;;;;493140;240;27445;-71
2023/10/18 00:13:53;;;;;;;7.70;5.12;;;5.80;99.90;;;;;;493110;241;27536;-70
2023/10/18 00:15:53;;;;;;;6.50;5.00;;;5.60;99.90;;;;;;476338;248;27500;-71
2023/10/18 00:17:55;;;;;;;9.13;6.03;;;5.70;99.90;;;;;;493113;240;27792;-69
2023/10/18 00:19:56;;;;;;;6.05;5.07;;;5.70;99.90;;;;;;493122;241;27817;-71
2023/10/18 00:21:57;;;;;;;7.50;5.40;;;5.70;99.90;;;;;;493150;241;27467;-72
2023/10/18 00:23:59;;;;;;;12.37;6.55;;;5.80;99.90;;;;;;493155;241;27429;-70
2023/10/18 00:26:00;;;;;;;8.70;5.70;;;5.80;99.90;;;;;;482307;244;27419;-71
2023/10/18 00:28:01;;;;;;;7.75;5.50;;;5.90;99.90;;;;;;482299;246;27380;-70
2023/10/18 00:30:07;;;;;;;7.97;5.20;;;5.90;99.90;;;;;;482298;246;27388;-70
2023/10/18 00:32:04;;;;;;;6.20;5.47;;;5.80;99.90;;;;;;475458;250;27908;-72
2023/10/18 00:34:05;;;;;;;6.40;5.70;;;5.80;99.90;;;;;;493162;240;27346;-70
2023/10/18 00:36:30;;;;;;;8.20;6.05;;;5.80;99.90;;;;;;493155;241;27499;-70
2023/10/18 00:38:14;;;;;;;7.55;5.25;;;5.80;99.90;;;;;;472847;251;27881;-72
2023/10/18 00:40:33;;;;;;;9.40;6.65;;;5.80;99.90;;;;;;481943;246;27427;-70
2023/10/18 00:42:29;;;;;;;7.70;5.87;;;5.90;99.90;;;;;;474129;248;27534;-70
2023/10/18 00:44:31;;;;;;;8.18;5.55;;;5.90;99.90;;;;;;475457;249;27512;-71
2023/10/18 00:46:32;;;;;;;8.07;5.47;;;5.80;99.90;;;;;;493048;241;27342;-72
2023/10/18 00:48:33;;;;;;;7.78;5.95;;;5.80;99.90;;;;;;476354;248;27436;-71
2023/10/18 00:50:37;;;;;;;11.63;7.25;;;5.80;99.90;;;;;;493090;240;28079;-70
2023/10/18 00:52:35;;;;;;;8.05;6.03;;;5.80;99.90;;;;;;493088;241;27337;-70
2023/10/18 00:54:38;;;;;;;10.88;5.82;;;5.90;99.90;;;;;;493125;241;27401;-72
2023/10/18 00:56:38;;;;;;;6.37;5.28;;;5.70;99.90;;;;;;476335;248;27501;-71
2023/10/18 00:58:42;;;;;;;6.82;5.15;;;5.60;99.90;;;;;;493085;240;27446;-71
2023/10/18 01:00:43;;;;;;;8.73;6.00;;;5.60;99.90;;;;;;493090;241;27773;-70
2023/10/18 01:02:44;;;;;;;7.57;4.85;;;5.50;99.90;;;;;;476342;248;27451;-72
2023/10/18 01:04:46;;;;;;;8.38;5.57;;;5.50;99.90;;;;;;493104;240;27519;-71
2023/10/18 01:06:50;;;;;;;8.38;6.20;;;5.40;99.90;;;;;;493113;241;27404;-71
2023/10/18 01:08:48;;;;;;;7.05;5.05;;;5.40;99.90;;;;;;493088;241;27363;-72
2023/10/18 01:10:57;;;;;;;5.70;4.85;;;5.40;99.90;;;;;;482314;244;27479;-72
2023/10/18 01:12:54;;;;;;;8.65;5.60;;;5.40;99.90;;;;;;475437;250;27936;-72
2023/10/18 01:14:52;;;;;;;6.20;5.35;;;5.30;99.90;;;;;;492975;241;27360;-71
2023/10/18 01:16:56;;;;;;;6.00;5.28;;;5.30;99.90;;;;;;476298;248;27430;-72
2023/10/18 01:18:57;;;;;;;5.67;4.90;;;5.30;99.90;;;;;;493111;240;27494;-70
2023/10/18 01:21:00;;;;;;;6.47;4.87;;;5.40;99.90;;;;;;493111;241;29264;-72
2023/10/18 01:23:00;;;;;;;5.97;5.20;;;5.40;99.90;;;;;;476333;248;27841;-71
2023/10/18 01:25:01;;;;;;;9.60;6.12;;;5.40;99.90;;;;;;493035;240;27610;-71
2023/10/18 01:27:02;;;;;;;8.50;5.70;;;5.50;99.90;;;;;;493008;241;27507;-71
2023/10/18 01:29:09;;;;;;;9.43;7.05;;;5.50;99.90;;;;;;482241;244;27420;-71
2023/10/18 01:31:07;;;;;;;9.27;5.47;;;5.40;99.90;;;;;;474101;248;27920;-70
2023/10/18 01:33:13;;;;;;;9.85;7.35;;;5.40;99.90;;;;;;475409;249;27460;-71
2023/10/18 01:35:13;;;;;;;9.88;6.45;;;5.40;99.90;;;;;;492987;241;27463;-71
2023/10/18 01:37:14;;;;;;;11.48;7.65;;;5.50;99.90;;;;;;482254;244;27396;-72
2023/10/18 01:39:18;;;;;;;8.60;6.37;;;5.50;99.90;;;;;;482243;246;27380;-71
2023/10/18 01:41:25;;;;;;;8.60;6.50;;;5.60;99.90;;;;;;482251;246;27462;-71
2023/10/18 01:43:29;;;;;;;8.00;6.20;;;5.60;99.90;;;;;;482295;246;28083;-72
2023/10/18 01:45:36;;;;;;;10.40;7.95;;;5.60;99.90;;;;;;482109;246;27896;-72
2023/10/18 01:47:35;;;;;;;9.70;6.75;;;5.60;99.90;;;;;;475410;250;27417;-70
2023/10/18 01:49:34;;;;;;;14.90;7.87;;;5.60;99.90;;;;;;492909;241;27384;-70
2023/10/18 01:51:34;;;;;;;10.68;8.38;;;5.50;99.90;;;;;;493080;241;27409;-71
2023/10/18 01:53:37;;;;;;;11.55;7.93;;;5.50;99.90;;;;;;482286;244;27502;-70
2023/10/18 01:55:37;;;;;;;12.32;7.60;;;5.40;99.90;;;;;;475449;250;27869;-72
2023/10/18 01:57:38;;;;;;;11.50;8.00;;;5.40;99.90;;;;;;493091;240;27818;-71
2023/10/18 01:59:39;;;;;;;15.93;7.62;;;5.40;99.90;;;;;;493109;241;27550;-71
2023/10/18 02:01:44;;;;;;;12.30;7.72;;;5.40;99.90;;;;;;493080;241;27365;-71
2023/10/18 02:03:44;;;;;;;13.05;7.85;;;5.40;99.90;;;;;;493103;241;27345;-70
2023/10/18 02:05:43;;;;;;;12.25;7.53;;;5.40;99.90;;;;;;476354;248;27436;-71
2023/10/18 02:07:47;;;;;;;8.68;6.97;;;5.50;99.90;;;;;;493138;240;27798;-70
2023/10/18 02:09:52;;;;;;;9.85;7.70;;;5.50;99.90;;;;;;493070;241;27860;-71
2023/10/18 02:11:49;;;;;;;9.70;6.75;;;5.50;99.90;;;;;;474019;249;27426;-71
2023/10/18 02:13:51;;;;;;;8.57;7.00;;;5.40;99.90;;;;;;475469;249;27782;-73
2023/10/18 02:15:52;;;;;;;8.27;6.62;;;5.40;99.90;;;;;;493136;240;27409;-71
2023/10/18 02:17:57;;;;;;;8.95;7.10;;;5.40;99.90;;;;;;493112;241;27388;-72
2023/10/18 02:19:58;;;;;;;12.13;8.57;;;5.40;99.90;;;;;;493110;241;27880;-71
2023/10/18 02:21:56;;;;;;;9.20;7.32;;;5.50;99.90;;;;;;493093;241;27378;-71
2023/10/18 02:23:57;;;;;;;14.52;9.20;;;5.50;99.90;;;;;;476379;248;27534;-71
2023/10/18 02:25:58;;;;;;;14.07;8.13;;;5.50;99.90;;;;;;493145;240;27337;-71
2023/10/18 02:28:00;;;;;;;14.27;10.10;;;5.50;99.90;;;;;;493117;241;27413;-71
2023/10/18 02:30:01;;;;;;;10.57;7.78;;;5.60;99.90;;;;;;493109;241;28638;-71
2023/10/18 02:32:21;;;;;;;12.20;8.55;;;5.70;99.90;;;;;;493129;241;27844;-71
2023/10/18 02:34:07;;;;;;;19.67;11.27;;;5.60;99.90;;;;;;493135;240;27326;-70
2023/10/18 02:36:21;;;;;;;13.57;8.85;;;5.60;99.90;;;;;;476372;248;27519;-71
2023/10/18 02:38:15;;;;;;;16.00;10.80;;;5.70;99.90;;;;;;492593;241;27381;-71
2023/10/18 02:40:29;;;;;;;16.92;10.32;;;5.70;99.90;;;;;;482302;244;27371;-71
2023/10/18 02:42:24;;;;;;;18.60;13.07;;;5.80;99.90;;;;;;475458;250;27453;-71
2023/10/18 02:44:22;;;;;;;15.07;10.63;;;5.90;99.90;;;;;;492703;241;27786;-71
2023/10/18 02:46:29;;;;;;;18.85;11.55;;;5.90;99.90;;;;;;482306;245;28722;-71
2023/10/18 02:48:28;;;;;;;19.73;13.05;;;5.90;99.90;;;;;;474177;248;27925;-72
2023/10/18 02:50:30;;;;;;;15.52;9.75;;;6.00;99.90;;;;;;475522;249;27409;-71
2023/10/18 02:52:30;;;;;;;15.20;10.43;;;6.00;99.90;;;;;;493068;241;27369;-71
2023/10/18 02:54:33;;;;;;;16.77;9.95;;;5.90;99.90;;;;;;476370;248;28872;-70
2023/10/18 02:56:37;;;;;;;18.10;12.20;;;5.90;99.90;;;;;;493014;241;27406;-71
2023/10/18 02:58:38;;;;;;;17.20;11.07;;;5.90;99.90;;;;;;493152;241;27342;-71
2023/10/18 03:00:40;;;;;;;14.40;11.00;;;5.90;99.90;;;;;;476389;248;27531;-71
2023/10/18 03:02:39;;;;;;;14.73;10.68;;;5.90;99.90;;;;;;493004;241;27428;-70
2023/10/18 03:04:42;;;;;;;13.80;9.77;;;5.90;99.90;;;;;;481784;244;27934;-71
2023/10/18 03:06:42;;;;;;;16.92;10.90;;;5.90;99.90;;;;;;475115;250;28795;-71
2023/10/18 03:08:49;;;;;;;14.02;9.35;;;5.80;99.90;;;;;;492934;240;27361;-70
2023/10/18 03:10:51;;;;;;;15.35;10.25;;;5.80;99.90;;;;;;493104;241;27875;-71
2023/10/18 03:12:52;;;;;;;11.35;8.95;;;5.80;99.90;;;;;;493158;241;27397;-72
2023/10/18 03:14:56;;;;;;;12.45;8.55;;;5.70;99.90;;;;;;476394;248;27401;-71
2023/10/18 03:16:57;;;;;;;14.90;9.57;;;5.70;99.90;;;;;;493153;240;27329;-72
2023/10/18 03:18:59;;;;;;;13.57;8.88;;;5.70;99.90;;;;;;493128;241;27456;-72
2023/10/18 03:21:04;;;;;;;10.13;7.77;;;5.60;99.90;;;;;;476364;248;27440;-72
2023/10/18 03:23:02;;;;;;;13.10;8.63;;;5.70;99.90;;;;;;492929;241;28150;-71
2023/10/18 03:25:09;;;;;;;14.87;9.98;;;5.70;99.90;;;;;;493136;241;27373;-72
2023/10/18 03:27:08;;;;;;;13.62;10.27;;;5.70;99.90;;;;;;493133;241;28004;-71
2023/10/18 03:29:16;;;;;;;13.88;10.30;;;5.70;99.90;;;;;;476354;248;27440;-70
2023/10/18 03:31:34;;;;;;;16.40;9.20;;;5.70;99.90;;;;;;493162;240;27961;-71
2023/10/18 03:33:32;;;;;;;12.93;9.80;;;5.70;99.90;;;;;;493138;241;27817;-70
2023/10/18 03:35:32;;;;;;;11.38;8.95;;;5.70;99.90;;;;;;476368;248;29281;-72
2023/10/18 03:37:33;;;;;;;13.20;9.98;;;5.70;99.90;;;;;;493158;240;28026;-70
2023/10/18 03:39:35;;;;;;;19.58;12.95;;;5.70;99.90;;;;;;493139;241;27350;-71
2023/10/18 03:41:40;;;;;;;12.75;9.88;;;5.70;99.90;;;;;;493184;241;27377;-72
2023/10/18 03:43:37;;;;;;;12.32;9.30;;;5.70;99.90;;;;;;476414;248;27393;-70
2023/10/18 03:47:58;;;;;;;16.12;11.23;;;5.80;99.90;;;;;;493147;241;27913;-71
2023/10/18 03:49:59;;;;;;;16.25;11.57;;;5.70;99.90;;;;;;482330;244;27470;-71
2023/10/18 03:52:17;;;;;;;13.95;10.15;;;5.70;99.90;;;;;;482330;246;27509;-71
2023/10/18 03:54:14;;;;;;;15.23;10.60;;;5.70;99.90;;;;;;475431;250;27389;-71
2023/10/18 03:56:13;;;;;;;17.45;11.88;;;5.70;99.90;;;;;;492904;241;27705;-72
2023/10/18 03:58:22;;;;;;;16.08;10.93;;;5.70;99.90;;;;;;476399;248;27402;-71
2023/10/18 04:04:26;;;;;;;18.40;11.57;;;5.70;99.90;;;;;;482327;246;27406;-74
2023/10/18 04:06:32;;;;;;;12.75;11.12;;;5.70;99.90;;;;;;482343;246;27451;-70
2023/10/18 04:08:32;;;;;;;15.45;10.20;;;5.70;99.90;;;;;;475453;250;27997;-71
2023/10/18 04:10:36;;;;;;;19.08;11.05;;;5.80;99.90;;;;;;493118;240;27375;-71
2023/10/18 04:12:34;;;;;;;17.35;11.60;;;5.80;99.90;;;;;;493138;240;27338;-71
2023/10/18 04:14:37;;;;;;;23.75;14.93;;;5.80;99.90;;;;;;482307;244;27384;-70
2023/10/18 04:16:36;;;;;;;19.58;13.50;;;5.70;99.90;;;;;;475457;250;27524;-71
2023/10/18 04:18:41;;;;;;;21.40;14.52;;;5.70;99.90;;;;;;493128;240;27830;-70
2023/10/18 04:20:40;;;;;;;25.15;15.07;;;5.70;99.90;;;;;;493132;241;27464;-70
2023/10/18 04:22:40;;;;;;;23.35;14.73;;;5.80;99.90;;;;;;476363;248;27449;-71
2023/10/18 04:24:41;;;;;;;23.02;14.60;;;5.80;99.90;;;;;;493155;240;27373;-70
2023/10/18 04:26:45;;;;;;;20.92;14.40;;;5.80;99.90;;;;;;493098;241;27377;-72
2023/10/18 04:28:45;;;;;;;25.10;14.93;;;5.80;99.90;;;;;;474112;249;27906;-70
2023/10/18 04:30:45;;;;;;;24.95;15.60;;;5.70;99.90;;;;;;475456;249;27532;-72
2023/10/18 04:32:53;;;;;;;18.87;13.48;;;5.80;99.90;;;;;;493165;240;27444;-73
2023/10/18 04:34:48;;;;;;;27.73;15.98;;;5.80;99.90;;;;;;493105;241;27341;-71
2023/10/18 04:36:51;;;;;;;26.83;16.33;;;5.80;99.90;;;;;;493119;241;27376;-71
2023/10/18 04:38:51;;;;;;;20.70;15.00;;;5.70;99.90;;;;;;493097;241;27774;-71
2023/10/18 04:41:06;;;;;;;17.67;12.68;;;5.70;99.90;;;;;;493160;241;27425;-70
2023/10/18 04:43:00;;;;;;;20.52;13.52;;;5.70;99.90;;;;;;493090;241;27377;-70
2023/10/18 04:45:03;;;;;;;18.30;13.65;;;5.70;99.90;;;;;;493121;241;27341;-71
2023/10/18 04:47:13;;;;;;;20.57;14.63;;;5.70;99.90;;;;;;476317;248;28160;-70
2023/10/18 04:51:26;;;;;;;19.23;13.02;;;5.60;99.90;;;;;;493086;241;27465;-71
2023/10/18 04:53:14;;;;;;;14.77;10.73;;;5.60;99.90;;;;;;476299;248;27436;-71
2023/10/18 04:55:12;;;;;;;13.65;10.40;;;5.60;99.90;;;;;;492960;241;27798;-71
2023/10/18 04:57:15;;;;;;;19.50;13.05;;;5.60;99.90;;;;;;482276;244;27899;-71
2023/10/18 05:01:22;;;;;;;18.42;12.88;;;5.50;99.90;;;;;;493102;240;27475;-71
2023/10/18 05:03:22;;;;;;;21.12;14.50;;;5.50;99.90;;;;;;493112;240;27476;-71
2023/10/18 05:05:25;;;;;;;22.37;14.35;;;5.60;99.90;;;;;;476319;248;27972;-71
2023/10/18 05:07:38;;;;;;;24.23;16.15;;;5.60;99.90;;;;;;492767;241;27796;-70
2023/10/18 05:09:30;;;;;;;20.20;12.85;;;5.60;99.90;;;;;;493096;241;27373;-70
2023/10/18 05:11:39;;;;;;;28.12;16.48;;;5.60;99.90;;;;;;482318;244;27897;-72
2023/10/18 05:13:32;;;;;;;23.62;15.23;;;5.70;99.90;;;;;;475429;250;27489;-70
2023/10/18 05:15:34;;;;;;;18.87;12.25;;;5.70;99.90;;;;;;493109;240;27448;-71
2023/10/18 05:17:45;;;;;;;17.83;12.55;;;5.70;99.90;;;;;;493101;241;27349;-71
2023/10/18 05:19:45;;;;;;;20.45;14.48;;;5.70;99.90;;;;;;482294;244;27408;-72
2023/10/18 05:21:47;;;;;;;21.37;14.43;;;5.70;99.90;;;;;;474063;251;27904;-70
2023/10/18 05:23:50;;;;;;;18.25;12.75;;;5.70;99.90;;;;;;475449;249;27434;-71
2023/10/18 05:25:53;;;;;;;20.40;13.07;;;5.70;99.90;;;;;;493002;240;27440;-72
2023/10/18 05:30:15;;;;;;;26.42;15.85;;;5.60;99.90;;;;;;476352;249;27520;-70
2023/10/18 05:32:49;;;;;;;18.10;14.00;;;5.60;99.90;;;;;;492784;241;27475;-72
2023/10/18 05:34:18;;;;;;;28.17;16.27;;;5.60;99.90;;;;;;493024;241;27799;-71
2023/10/18 05:38:47;;;;;;;20.33;13.45;;;5.70;99.90;;;;;;493126;241;27424;-70
2023/10/18 05:42:45;;;;;;;17.10;11.25;;;5.70;99.90;;;;;;493083;241;27349;-71
2023/10/18 05:44:41;;;;;;;23.60;14.27;;;5.60;99.90;;;;;;476331;248;27524;-72
2023/10/18 05:46:41;;;;;;;26.83;14.77;;;5.60;99.90;;;;;;493039;240;28020;-72
2023/10/18 05:48:43;;;;;;;23.65;16.58;;;5.80;99.90;;;;;;493104;241;27785;-71
2023/10/18 05:51:25;;;;;;;29.40;17.08;;;5.80;99.90;;;;;;493055;241;27369;-72
2023/10/18 05:52:49;;;;;;;25.08;17.00;;;5.80;99.90;;;;;;493501;240;27423;-71
2023/10/18 05:54:46;;;;;;;28.85;15.98;;;5.80;99.90;;;;;;476336;248;27432;-72
2023/10/18 05:56:49;;;;;;;24.27;15.18;;;5.80;99.90;;;;;;493124;240;27911;-73
2023/10/18 05:59:15;;;;;;;25.42;16.08;;;5.80;99.90;;;;;;493083;241;27879;-71
2023/10/18 06:00:50;;;;;;;22.45;16.15;;;5.80;99.90;;;;;;493030;241;27384;-71
2023/10/18 06:02:52;;;;;;;25.23;16.40;;;5.90;99.90;;;;;;482283;245;27444;-71
2023/10/18 06:04:55;;;;;;;25.52;16.02;;;5.90;99.90;;;;;;475434;250;27405;-71
2023/10/18 06:07:09;;;;;;;23.87;16.40;;;5.90;99.90;;;;;;493002;241;27864;-71
2023/10/18 06:09:08;;;;;;;24.65;16.15;;;5.80;99.90;;;;;;476326;248;27397;-71
2023/10/18 06:11:06;;;;;;;26.80;16.25;;;5.90;99.90;;;;;;492636;241;27851;-72
2023/10/18 06:13:10;;;;;;;26.17;16.37;;;5.90;99.90;;;;;;476303;250;27533;-74
2023/10/18 06:15:11;;;;;;;20.67;13.85;;;5.90;99.90;;;;;;492950;241;28006;-73
2023/10/18 06:17:13;;;;;;;19.92;13.15;;;5.90;99.90;;;;;;482287;244;27887;-71
2023/10/18 06:19:15;;;;;;;22.98;13.30;;;6.00;99.90;;;;;;474083;251;27506;-73
2023/10/18 06:21:21;;;;;;;26.12;15.98;;;6.00;99.90;;;;;;475422;249;27405;-71
2023/10/18 06:23:37;;;;;;;19.48;13.48;;;6.00;99.90;;;;;;493118;240;27838;-72
2023/10/18 06:25:44;;;;;;;16.20;11.70;;;6.10;99.90;;;;;;493160;241;27374;-71
2023/10/18 06:27:40;;;;;;;18.07;13.30;;;6.10;99.90;;;;;;476348;248;30190;-71
2023/10/18 06:29:42;;;;;;;15.05;11.88;;;6.20;99.90;;;;;;493153;240;29275;-72
2023/10/18 06:31:46;;;;;;;24.35;16.75;;;6.20;99.90;;;;;;493153;241;27377;-72
2023/10/18 06:33:44;;;;;;;18.42;12.50;;;6.30;99.90;;;;;;493084;241;27336;-71
2023/10/18 06:35:54;;;;;;;21.17;13.70;;;6.30;99.90;;;;;;493175;240;27475;-72
2023/10/18 06:37:55;;;;;;;15.90;11.10;;;6.40;99.90;;;;;;493103;241;28778;-71
2023/10/18 06:39:58;;;;;;;16.80;11.90;;;6.40;99.90;;;;;;482354;244;28226;-73
2023/10/18 06:41:57;;;;;;;20.03;14.10;;;6.40;99.90;;;;;;475461;250;28772;-71
2023/10/18 06:43:59;;;;;;;23.80;14.57;;;6.40;99.90;;;;;;493143;240;28104;-71
2023/10/18 06:46:00;;;;;;;22.43;15.67;;;6.50;99.90;;;;;;493140;241;27699;-71
2023/10/18 06:48:03;;;;;;;25.50;15.33;;;6.50;99.90;;;;;;476381;248;28849;-72
2023/10/18 06:50:04;;;;;;;22.93;16.10;;;6.50;99.90;;;;;;493019;241;27824;-72
2023/10/18 06:52:04;;;;;;;23.67;14.63;;;6.60;99.90;;;;;;476371;248;27653;-71
2023/10/18 06:54:05;;;;;;;22.97;15.60;;;6.60;99.90;;;;;;493135;240;27717;-72
2023/10/18 06:56:13;;;;;;;21.03;14.97;;;6.60;99.90;;;;;;493124;241;27704;-73
2023/10/18 06:58:22;;;;;;;22.87;15.27;;;6.70;99.90;;;;;;493110;241;28308;-72
2023/10/18 07:00:15;;;;;;;19.63;12.17;;;6.70;99.90;;;;;;493136;241;27562;-72
2023/10/18 07:02:16;;;;;;;19.10;14.80;;;6.70;99.90;;;;;;482359;244;28706;-71
2023/10/18 07:04:27;;;;;;;15.40;11.37;;;6.80;99.90;;;;;;475472;250;27996;-71
2023/10/18 07:06:19;;;;;;;20.10;13.60;;;6.80;99.90;;;;;;492350;241;27668;-73
2023/10/18 07:08:20;;;;;;;16.33;12.20;;;6.80;99.90;;;;;;493119;241;27714;-71
2023/10/18 07:10:48;;;;;;;16.27;11.90;;;6.90;99.90;;;;;;482318;244;27543;-71
2023/10/18 07:12:32;;;;;;;20.27;14.00;;;6.90;99.90;;;;;;475394;250;28122;-71
2023/10/18 07:14:30;;;;;;;23.17;14.83;;;6.90;99.90;;;;;;492913;241;28006;-71
2023/10/18 07:18:36;;;;;;;19.97;13.67;;;7.00;99.90;;;;;;482318;245;28378;-71
2023/10/18 07:20:34;;;;;;;16.17;11.60;;;7.10;99.90;;;;;;474147;248;27834;-72
2023/10/18 07:22:44;;;;;;;19.10;13.80;;;7.20;99.90;;;;;;475447;249;27427;-72
2023/10/18 07:24:47;;;;;;;16.80;12.20;;;7.20;99.90;;;;;;493143;240;27887;-72
2023/10/18 07:26:46;;;;;;;20.43;13.60;;;7.30;99.90;;;;;;493105;241;27545;-71
2023/10/18 07:28:49;;;;;;;15.50;11.27;;;7.30;99.90;;;;;;482314;244;27981;-71
2023/10/18 07:30:49;;;;;;;20.47;13.17;;;7.40;99.90;;;;;;475457;250;28478;-73
2023/10/18 07:32:57;;;;;;;20.53;13.70;;;7.40;99.90;;;;;;493124;240;28147;-71
2023/10/18 07:34:57;;;;;;;18.87;12.97;;;7.40;99.90;;;;;;493089;241;27876;-71
2023/10/18 07:36:54;;;;;;;23.07;13.00;;;7.40;99.90;;;;;;476405;248;27750;-71
2023/10/18 07:38:57;;;;;;;17.67;12.33;;;7.50;99.90;;;;;;493103;241;27936;-71
2023/10/18 07:41:03;;;;;;;18.37;13.00;;;7.50;99.90;;;;;;482341;244;27822;-71
2023/10/18 07:42:59;;;;;;;17.70;12.77;;;7.60;99.90;;;;;;474174;248;27992;-72
2023/10/18 07:45:04;;;;;;;16.50;12.10;;;7.60;99.90;;;;;;475513;249;27849;-72
2023/10/18 07:47:02;;;;;;;18.53;13.50;;;7.60;99.90;;;;;;492902;241;27718;-72
2023/10/18 07:49:21;;;;;;;18.50;12.70;;;7.70;99.90;;;;;;493116;240;27914;-72
2023/10/18 07:51:31;;;;;;;17.10;12.33;;;7.70;99.90;;;;;;493087;241;27974;-72
2023/10/18 07:53:11;;;;;;;19.03;12.50;;;7.80;99.90;;;;;;493584;240;28438;-71
2023/10/18 07:55:10;;;;;;;15.50;12.00;;;7.90;99.90;;;;;;476382;248;28016;-72
2023/10/18 07:57:17;;;;;;;14.03;10.67;;;7.90;99.90;;;;;;493178;240;27906;-71
2023/10/18 07:59:30;;;;;;;15.80;10.77;;;8.00;99.90;;;;;;493139;241;28233;-72
2023/10/18 08:03:42;;;;;;;18.53;12.23;;;8.00;99.90;;;;;;494833;240;28019;-71
2023/10/18 08:05:50;;;;;;;15.90;11.07;;;8.10;99.90;;;;;;476330;248;27683;-72
2023/10/18 08:07:48;;;;;;;12.07;9.70;;;8.10;99.90;;;;;;492433;241;27992;-71
2023/10/18 08:09:43;;;;;;;13.60;10.37;;;8.10;99.90;;;;;;493083;240;27739;-72
2023/10/18 08:11:44;;;;;;;12.33;10.23;;;8.20;99.90;;;;;;493110;241;27956;-72
2023/10/18 08:13:45;;;;;;;14.73;11.03;;;8.30;99.90;;;;;;493119;241;27815;-72
2023/10/18 08:15:51;;;;;;;12.80;10.57;;;8.30;99.90;;;;;;482336;244;28380;-71
2023/10/18 08:17:50;;;;;;;10.53;7.87;;;8.30;99.90;;;;;;475466;250;28477;-74
2023/10/18 08:19:56;;;;;;;15.00;10.50;;;8.50;99.90;;;;;;492931;241;28262;-72
2023/10/18 08:24:25;;;;;;;14.60;9.87;;;8.50;99.90;;;;;;493101;240;27867;-72
2023/10/18 08:26:12;;;;;;;17.20;10.90;;;8.60;99.90;;;;;;493426;240;27683;-72
2023/10/18 08:28:13;;;;;;;15.03;10.80;;;8.60;99.90;;;;;;476374;248;27864;-72
2023/10/18 08:30:23;;;;;;;16.13;10.60;;;8.60;99.90;;;;;;493074;240;27695;-71
2023/10/18 08:32:18;;;;;;;12.70;9.03;;;8.70;99.90;;;;;;493078;241;27564;-71
2023/10/18 08:34:19;;;;;;;16.47;10.10;;;8.80;99.90;;;;;;476336;248;28380;-72
2023/10/18 08:36:29;;;;;;;14.87;10.10;;;8.80;99.90;;;;;;493035;240;27824;-74
2023/10/18 08:38:26;;;;;;;10.83;9.30;;;8.90;99.90;;;;;;493107;241;27334;-71
2023/10/18 08:41:11;;;;;;;11.30;8.87;;;9.00;99.90;;;;;;476347;248;28014;-72
2023/10/18 08:42:33;;;;;;;15.53;10.70;;;8.90;99.90;;;;;;491603;241;27909;-72
2023/10/18 08:44:35;;;;;;;16.20;10.23;;;9.00;99.90;;;;;;482304;244;27894;-72
2023/10/18 08:46:36;;;;;;;15.83;9.23;;;9.00;99.90;;;;;;475422;250;27982;-71
2023/10/18 08:48:40;;;;;;;11.33;8.50;;;9.00;99.90;;;;;;493058;241;27885;-74
2023/10/18 08:50:40;;;;;;;12.67;9.60;;;9.10;99.90;;;;;;493135;241;27960;-74
2023/10/18 08:52:47;;;;;;;11.47;8.87;;;9.20;99.90;;;;;;482298;245;27933;-72
2023/10/18 08:54:42;;;;;;;19.53;9.20;;;9.20;99.90;;;;;;475448;250;28382;-72
2023/10/18 08:56:44;;;;;;;13.67;9.50;;;9.20;99.90;;;;;;493148;240;28129;-71
2023/10/18 08:58:47;;;;;;;13.10;9.17;;;9.30;99.90;;;;;;493147;241;28263;-72
2023/10/18 09:02:48;;;;;;;12.00;9.30;;;9.40;99.90;;;;;;482320;244;27856;-71
2023/10/18 09:04:52;;;;;;;10.23;7.83;;;9.40;99.90;;;;;;482352;246;27913;-72
2023/10/18 09:06:50;;;;;;;12.20;8.47;;;9.50;99.90;;;;;;475498;250;28070;-72
2023/10/18 09:09:03;;;;;;;9.67;8.00;;;9.70;99.90;;;;;;493130;240;27488;-72
2023/10/18 09:10:56;;;;;;;13.60;7.43;;;9.70;99.90;;;;;;493106;241;27522;-72
2023/10/18 09:14:55;;;;;;;11.27;9.60;;;9.90;99.90;;;;;;482315;245;28005;-72
2023/10/18 09:17:00;;;;;;;13.50;8.30;;;10.00;99.90;;;;;;482275;246;27886;-74
2023/10/18 09:18:58;;;;;;;10.87;7.97;;;9.90;99.90;;;;;;475447;250;28243;-72
2023/10/18 09:21:17;;;;;;;12.40;8.17;;;10.00;99.90;;;;;;493140;240;28219;-72
2023/10/18 09:23:03;;;;;;;12.00;8.53;;;10.20;99.90;;;;;;493305;240;28212;-72
2023/10/18 09:25:04;;;;;;;12.97;7.13;;;10.30;99.90;;;;;;482325;244;29247;-72
2023/10/18 09:27:06;;;;;;;7.80;6.20;;;10.30;99.90;;;;;;482333;246;27958;-72
2023/10/18 09:29:08;;;;;;;10.93;7.80;;;10.40;99.90;;;;;;475449;250;28044;-72
2023/10/18 09:31:11;;;;;;;8.40;6.23;;;10.50;99.90;;;;;;492989;240;27894;-71
2023/10/18 09:33:13;;;;;;;9.33;6.77;;;10.60;99.90;;;;;;493057;241;28118;-72
2023/10/18 09:35:13;;;;;;;10.90;7.67;;;10.60;99.90;;;;;;476274;248;28185;-72
2023/10/18 09:37:15;;;;;;;11.33;8.60;;;10.60;99.90;;;;;;493102;240;28160;-72
2023/10/18 09:39:20;;;;;;;9.40;6.80;;;10.70;99.90;;;;;;493136;241;28502;-72
2023/10/18 09:41:17;;;;;;;11.17;7.50;;;10.70;99.90;;;;;;493093;241;28665;-72
2023/10/18 09:43:18;;;;;;;11.17;7.07;;;10.90;99.90;;;;;;476311;248;28566;-72
2023/10/18 09:45:20;;;;;;;8.87;7.57;;;11.00;99.90;;;;;;492916;241;28290;-72
2023/10/18 09:47:23;;;;;;;7.57;6.17;;;11.00;99.90;;;;;;482203;246;28358;-74
2023/10/18 09:49:23;;;;;;;8.30;6.90;;;11.10;99.90;;;;;;475440;250;27949;-72
2023/10/18 09:51:23;;;;;;;9.13;7.00;;;11.10;99.90;;;;;;493033;240;28367;-73
2023/10/18 09:53:26;;;;;;;9.50;6.30;;;11.30;99.90;;;;;;493077;241;28065;-72
2023/10/18 09:55:26;;;;;;;11.50;7.00;;;11.30;99.90;;;;;;476320;248;28158;-73
2023/10/18 09:57:33;;;;;;;7.93;6.23;;;11.20;99.90;;;;;;493109;240;28181;-73
2023/10/18 09:59:31;;;;;;;8.73;6.60;;;11.20;99.90;;;;;;493084;241;28424;-72
2023/10/18 10:03:52;;;;;;;7.00;5.50;;;11.30;99.90;;;;;;482168;246;28213;-71
2023/10/18 10:05:57;;;;;;;10.43;7.20;;;11.30;99.90;;;;;;482317;246;28214;-72
2023/10/18 10:07:55;;;;;;;8.87;7.00;;;11.30;99.90;;;;;;475425;250;28549;-71
2023/10/18 10:10:08;;;;;;;7.77;6.60;;;11.20;99.90;;;;;;493146;240;28176;-71
2023/10/18 10:12:10;;;;;;;8.70;6.43;;;11.20;99.90;;;;;;493156;241;28747;-72
2023/10/18 10:14:11;;;;;;;10.50;6.93;;;11.30;99.90;;;;;;493101;241;28505;-71
2023/10/18 10:16:13;;;;;;;7.97;5.70;;;11.20;99.90;;;;;;482303;244;28241;-71
2023/10/18 10:18:13;;;;;;;7.00;5.97;;;11.20;99.90;;;;;;475432;250;28444;-70
2023/10/18 10:20:14;;;;;;;12.90;6.20;;;11.20;99.90;;;;;;493098;240;27812;-70
2023/10/18 10:22:15;;;;;;;7.60;6.30;;;11.30;99.90;;;;;;493106;241;27931;-72
2023/10/18 10:24:33;;;;;;;8.00;5.50;;;11.30;99.90;;;;;;482296;244;28092;-70
2023/10/18 10:26:35;;;;;;;8.43;5.30;;;11.30;99.90;;;;;;475444;250;28782;-72
2023/10/18 10:29:09;;;;;;;8.50;5.60;;;11.30;99.90;;;;;;493023;240;28409;-71
2023/10/18 10:30:36;;;;;;;8.10;5.30;;;11.40;99.90;;;;;;493048;240;28199;-72
2023/10/18 10:32:37;;;;;;;8.20;5.50;;;11.40;99.90;;;;;;482311;244;28063;-71
2023/10/18 10:34:40;;;;;;;11.57;6.67;;;11.30;99.90;;;;;;482266;246;28528;-71
2023/10/18 10:36:44;;;;;;;11.73;6.17;;;11.30;99.90;;;;;;475431;250;28257;-72
2023/10/18 10:38:43;;;;;;;10.53;5.93;;;11.30;99.90;;;;;;492810;241;28363;-71
2023/10/18 10:40:48;;;;;;;7.53;6.00;;;11.30;99.90;;;;;;476354;248;28279;-72
2023/10/18 10:42:49;;;;;;;10.37;5.93;;;11.30;99.90;;;;;;492920;241;28507;-71
2023/10/18 10:44:54;;;;;;;11.00;5.93;;;11.20;99.90;;;;;;482275;244;28239;-71
2023/10/18 10:46:53;;;;;;;15.93;8.80;;;11.30;99.90;;;;;;475447;250;28415;-73
2023/10/18 10:48:56;;;;;;;12.83;7.10;;;11.20;99.90;;;;;;493038;240;28245;-71
2023/10/18 10:50:54;;;;;;;14.03;6.77;;;11.20;99.90;;;;;;493108;241;28106;-71
2023/10/18 10:52:58;;;;;;;11.40;7.70;;;11.20;99.90;;;;;;476357;248;28112;-71
2023/10/18 10:54:57;;;;;;;14.10;10.80;;;11.10;99.90;;;;;;492937;241;28139;-71
2023/10/18 10:57:00;;;;;;;23.10;14.80;;;11.10;99.90;;;;;;482326;245;28433;-71
2023/10/18 11:01:12;;;;;;;10.27;6.70;;;11.10;99.90;;;;;;493125;240;28532;-72
2023/10/18 11:03:13;;;;;;;9.33;6.53;;;11.00;99.90;;;;;;493127;241;28147;-71
2023/10/18 11:05:16;;;;;;;9.53;6.77;;;11.00;99.90;;;;;;476370;248;28739;-71